Time;durP1;ratioP1;P1;durP2;ratioP2;P2;SDS_P1;SDS_P2;PMS_P1;PMS_P2;Temp;Humidity;BMP_temperature;BMP_pressure;BME280_temperature;BME280_humidity;BME280_pressure;Samples;Min_cycle;Max_cycle;Signal;HPM_P1;HPM_P2
2023/03/07 00:02:22;;;;;;;41.43;15.70;;;4.00;96.70;;;;;;5056561;28;20474;-59
2023/03/07 00:04:49;;;;;;;49.53;20.77;;;3.80;96.90;;;;;;5080534;28;20480;-58
2023/03/07 00:07:17;;;;;;;47.60;18.90;;;3.70;97.30;;;;;;5070874;28;20794;-58
2023/03/07 00:09:43;;;;;;;53.50;23.50;;;3.50;97.50;;;;;;5067382;28;20481;-58
2023/03/07 00:12:11;;;;;;;61.17;22.93;;;3.50;97.80;;;;;;5069970;28;20474;-59
2023/03/07 00:14:38;;;;;;;45.40;19.70;;;3.40;98.00;;;;;;5067628;28;21248;-58
2023/03/07 00:17:05;;;;;;;61.73;22.27;;;3.40;98.20;;;;;;5067151;28;21063;-58
2023/03/07 00:19:31;;;;;;;32.03;14.90;;;2.20;97.80;;;;;;5063430;28;20489;-58
2023/03/07 00:21:58;;;;;;;67.13;27.43;;;3.40;98.40;;;;;;5075793;28;21066;-59
2023/03/07 00:24:26;;;;;;;37.40;15.90;;;3.40;98.60;;;;;;5075351;28;21183;-59
2023/03/07 00:26:53;;;;;;;69.80;25.30;;;3.40;98.70;;;;;;5067296;28;20535;-59
2023/03/07 00:29:19;;;;;;;31.23;13.70;;;3.40;98.80;;;;;;5073674;28;20551;-59
2023/03/07 00:31:48;;;;;;;64.00;30.50;;;3.30;98.90;;;;;;5064694;28;21046;-59
2023/03/07 00:34:15;;;;;;;51.23;25.30;;;3.20;99.20;;;;;;5067802;28;21375;-58
2023/03/07 00:36:41;;;;;;;43.10;17.90;;;3.20;99.30;;;;;;5062202;27;20507;-58
2023/03/07 00:39:08;;;;;;;41.57;17.03;;;3.20;99.20;;;;;;5072254;28;20478;-59
2023/03/07 00:41:36;;;;;;;51.77;25.80;;;3.20;99.30;;;;;;5067057;28;20493;-59
2023/03/07 00:44:03;;;;;;;57.63;22.70;;;3.10;99.50;;;;;;5075682;28;20750;-59
2023/03/07 00:46:30;;;;;;;32.17;12.17;;;3.10;99.80;;;;;;5095624;28;20510;-59
2023/03/07 00:48:57;;;;;;;70.00;29.03;;;3.00;99.80;;;;;;5060467;28;20484;-58
2023/03/07 00:51:24;;;;;;;62.67;27.00;;;3.10;99.90;;;;;;5086740;28;20475;-58
2023/03/07 00:53:51;;;;;;;52.37;22.50;;;3.10;99.90;;;;;;5079539;27;20482;-58
2023/03/07 00:56:19;;;;;;;43.50;23.77;;;3.10;99.90;;;;;;5077882;28;20495;-59
2023/03/07 00:58:47;;;;;;;35.03;15.80;;;3.00;99.90;;;;;;5096411;28;20482;-59
2023/03/07 01:01:16;;;;;;;32.57;14.77;;;3.10;99.90;;;;;;5091769;28;20485;-59
2023/03/07 01:03:43;;;;;;;56.07;23.43;;;3.00;99.90;;;;;;5078369;28;20474;-58
2023/03/07 01:06:12;;;;;;;32.37;12.20;;;3.00;99.90;;;;;;5073898;28;20471;-58
2023/03/07 01:08:39;;;;;;;45.03;21.93;;;3.10;99.90;;;;;;5057029;28;20469;-59
2023/03/07 01:11:07;;;;;;;74.00;29.67;;;3.10;99.90;;;;;;5086775;28;20538;-60
2023/03/07 01:13:35;;;;;;;44.83;18.97;;;3.10;99.90;;;;;;5072491;28;20478;-60
2023/03/07 01:16:16;;;;;;;73.33;31.80;;;3.00;99.90;;;;;;5080893;28;21045;-59
2023/03/07 01:18:43;;;;;;;40.83;15.17;;;3.10;99.90;;;;;;5076970;28;20486;-59
2023/03/07 01:21:15;;;;;;;34.33;16.00;;;3.10;99.90;;;;;;5074182;28;20483;-59
2023/03/07 01:23:41;;;;;;;48.67;20.90;;;3.10;99.90;;;;;;5060553;28;21094;-59
2023/03/07 01:26:12;;;;;;;51.20;20.67;;;3.10;99.90;;;;;;5047909;28;20900;-58
2023/03/07 01:28:39;;;;;;;45.83;20.10;;;3.20;99.90;;;;;;5076185;28;20490;-58
2023/03/07 01:31:06;;;;;;;67.20;26.03;;;3.20;99.90;;;;;;5079921;28;20478;-58
2023/03/07 01:33:34;;;;;;;37.73;15.13;;;3.20;99.90;;;;;;5085043;28;20486;-58
2023/03/07 01:36:00;;;;;;;74.50;24.63;;;3.20;99.90;;;;;;5067696;28;20691;-58
2023/03/07 01:38:32;;;;;;;34.20;15.13;;;3.20;99.90;;;;;;5083843;28;20490;-58
2023/03/07 01:40:59;;;;;;;65.17;23.20;;;3.20;99.90;;;;;;5074021;28;20508;-58
2023/03/07 01:43:27;;;;;;;53.23;22.23;;;3.20;99.90;;;;;;5069148;28;20612;-58
2023/03/07 01:46:32;;;;;;;42.83;15.47;;;3.30;99.90;;;;;;5067724;28;20997;-58
2023/03/07 01:49:08;;;;;;;74.57;27.37;;;3.30;99.90;;;;;;5075069;28;20843;-58
2023/03/07 01:51:36;;;;;;;50.10;19.63;;;3.30;99.90;;;;;;5064490;28;20485;-58
2023/03/07 01:54:04;;;;;;;60.10;22.67;;;3.40;99.90;;;;;;5058175;27;20477;-58
2023/03/07 01:56:31;;;;;;;47.87;18.10;;;3.50;99.90;;;;;;5082667;27;20486;-58
2023/03/07 01:58:58;;;;;;;73.50;27.60;;;3.50;99.90;;;;;;5073435;28;20871;-58
2023/03/07 02:01:27;;;;;;;46.73;20.00;;;3.50;99.90;;;;;;5074569;28;20490;-58
2023/03/07 02:03:57;;;;;;;58.93;22.67;;;3.50;99.90;;;;;;5073625;28;20973;-58
2023/03/07 02:06:27;;;;;;;52.93;20.27;;;3.60;99.90;;;;;;5078883;28;21262;-58
2023/03/07 02:08:55;;;;;;;47.27;19.67;;;3.60;99.90;;;;;;5077465;28;20486;-58
2023/03/07 02:11:22;;;;;;;47.37;23.03;;;3.60;99.90;;;;;;5077514;28;20856;-58
2023/03/07 02:13:49;;;;;;;52.67;22.03;;;3.60;99.90;;;;;;5085891;28;20481;-57
2023/03/07 02:16:15;;;;;;;38.57;19.73;;;3.60;99.90;;;;;;5076374;28;20768;-58
2023/03/07 02:18:45;;;;;;;55.37;23.57;;;3.60;99.90;;;;;;5073790;28;20486;-59
2023/03/07 02:21:18;;;;;;;31.10;15.50;;;3.50;99.90;;;;;;5076555;28;20566;-59
2023/03/07 02:23:53;;;;;;;30.97;13.33;;;3.50;99.90;;;;;;5059921;28;20490;-59
2023/03/07 02:26:29;;;;;;;44.13;18.33;;;3.50;99.90;;;;;;5071285;28;21006;-59
2023/03/07 02:28:58;;;;;;;48.63;18.37;;;3.50;99.90;;;;;;5065079;28;20919;-59
2023/03/07 02:31:25;;;;;;;29.37;13.77;;;3.50;99.90;;;;;;5073214;28;20478;-59
2023/03/07 02:33:52;;;;;;;40.90;17.63;;;3.60;99.90;;;;;;5051888;28;21014;-59
2023/03/07 02:36:23;;;;;;;35.20;15.57;;;3.60;99.90;;;;;;5080733;27;21035;-59
2023/03/07 02:38:52;;;;;;;38.10;17.67;;;3.70;99.90;;;;;;5075740;28;20482;-59
2023/03/07 02:41:23;;;;;;;41.80;17.17;;;3.70;99.90;;;;;;5074862;28;20486;-59
2023/03/07 02:43:50;;;;;;;50.73;21.47;;;3.70;99.90;;;;;;5055831;28;20486;-58
2023/03/07 02:46:19;;;;;;;35.60;17.40;;;3.70;99.90;;;;;;5070068;28;20606;-59
2023/03/07 02:48:45;;;;;;;43.80;19.77;;;3.70;99.90;;;;;;5072857;28;20544;-58
2023/03/07 02:51:12;;;;;;;42.60;19.53;;;3.70;99.90;;;;;;5072421;28;20536;-59
2023/03/07 02:53:39;;;;;;;44.40;19.37;;;3.70;99.90;;;;;;5076386;28;20502;-59
2023/03/07 02:56:06;;;;;;;50.70;23.00;;;3.70;99.90;;;;;;5069822;28;20504;-59
2023/03/07 02:58:33;;;;;;;35.43;16.67;;;3.70;99.90;;;;;;5087978;28;20490;-58
2023/03/07 03:01:00;;;;;;;75.23;27.90;;;3.70;99.90;;;;;;5068207;28;20478;-58
2023/03/07 03:03:28;;;;;;;49.07;21.50;;;3.70;99.90;;;;;;5059108;28;20491;-59
2023/03/07 03:05:55;;;;;;;65.77;27.67;;;3.70;99.90;;;;;;5054135;28;20536;-59
2023/03/07 03:08:21;;;;;;;23.57;13.70;;;3.70;99.90;;;;;;5052606;28;20489;-59
2023/03/07 03:10:52;;;;;;;54.80;20.37;;;3.70;99.90;;;;;;5079767;28;20490;-59
2023/03/07 03:13:19;;;;;;;27.80;13.43;;;3.80;99.80;;;;;;5081872;28;20474;-59
2023/03/07 03:15:45;;;;;;;28.37;13.80;;;3.80;99.90;;;;;;5069953;28;20528;-58
2023/03/07 03:18:12;;;;;;;33.60;14.60;;;3.80;99.90;;;;;;5084872;28;20477;-59
2023/03/07 03:20:41;;;;;;;39.43;18.70;;;3.90;99.90;;;;;;5046967;28;20493;-59
2023/03/07 03:23:07;;;;;;;51.27;21.83;;;3.80;99.50;;;;;;5077896;28;21032;-59
2023/03/07 03:25:34;;;;;;;21.50;11.40;;;3.90;99.60;;;;;;5060057;28;20485;-59
2023/03/07 03:28:01;;;;;;;49.97;22.10;;;3.80;99.40;;;;;;5048927;28;20490;-59
2023/03/07 03:30:31;;;;;;;43.03;22.47;;;3.90;99.60;;;;;;5083069;28;20497;-59
2023/03/07 03:32:57;;;;;;;50.70;22.07;;;3.90;99.60;;;;;;5070570;28;21017;-60
2023/03/07 03:35:24;;;;;;;29.10;15.70;;;3.90;99.60;;;;;;5071232;28;20478;-59
2023/03/07 03:37:52;;;;;;;54.07;22.07;;;3.80;99.50;;;;;;5071774;28;20470;-59
2023/03/07 03:40:19;;;;;;;35.50;16.70;;;3.80;99.60;;;;;;5072427;28;21255;-59
2023/03/07 03:42:47;;;;;;;39.20;18.73;;;3.80;99.90;;;;;;5066284;28;21052;-59
2023/03/07 03:45:14;;;;;;;33.97;15.17;;;3.80;99.30;;;;;;5064057;28;20485;-59
2023/03/07 03:47:41;;;;;;;41.30;18.97;;;3.80;99.60;;;;;;5074871;28;20475;-59
2023/03/07 03:50:09;;;;;;;48.57;21.60;;;3.80;99.40;;;;;;5063404;28;20566;-59
2023/03/07 03:52:36;;;;;;;38.83;20.03;;;3.80;99.80;;;;;;5087225;27;20470;-59
2023/03/07 03:55:06;;;;;;;52.63;20.93;;;3.80;99.40;;;;;;5070710;28;20481;-58
2023/03/07 03:57:32;;;;;;;37.20;18.30;;;3.80;99.40;;;;;;5083759;28;21052;-59
2023/03/07 03:59:59;;;;;;;62.07;24.20;;;3.80;99.30;;;;;;5074734;28;20851;-59
2023/03/07 04:02:29;;;;;;;32.20;14.77;;;3.90;99.30;;;;;;5065765;28;20977;-59
2023/03/07 04:04:55;;;;;;;55.83;20.60;;;3.90;99.10;;;;;;5082499;28;20603;-59
2023/03/07 04:07:23;;;;;;;25.13;12.10;;;3.90;99.10;;;;;;5063601;28;20571;-59
2023/03/07 04:09:50;;;;;;;49.60;20.47;;;3.90;99.00;;;;;;5077579;28;20994;-59
2023/03/07 04:12:18;;;;;;;30.53;16.87;;;3.90;99.00;;;;;;5083913;28;20473;-59
2023/03/07 04:14:45;;;;;;;24.80;11.10;;;3.90;99.10;;;;;;5086645;28;20535;-59
2023/03/07 04:17:12;;;;;;;29.13;12.77;;;3.80;99.20;;;;;;5077486;28;20485;-59
2023/03/07 04:19:38;;;;;;;39.30;18.33;;;3.80;99.10;;;;;;5058691;28;20489;-59
2023/03/07 04:22:05;;;;;;;42.50;18.80;;;3.80;99.00;;;;;;5093520;28;20476;-59
2023/03/07 04:24:32;;;;;;;30.37;13.57;;;3.80;98.80;;;;;;5064965;28;20473;-59
2023/03/07 04:26:58;;;;;;;58.07;22.67;;;3.90;98.80;;;;;;5095892;28;21105;-59
2023/03/07 04:29:27;;;;;;;31.40;18.30;;;3.90;98.70;;;;;;5095613;28;20558;-59
2023/03/07 04:31:53;;;;;;;40.90;20.23;;;3.90;98.70;;;;;;5078718;28;20852;-59
2023/03/07 04:34:20;;;;;;;45.97;21.33;;;3.90;98.70;;;;;;5076745;28;20535;-59
2023/03/07 04:36:47;;;;;;;35.93;16.87;;;3.90;98.70;;;;;;5075897;28;20477;-59
2023/03/07 04:39:13;;;;;;;26.57;13.80;;;4.00;98.80;;;;;;5062281;28;20491;-58
2023/03/07 04:41:40;;;;;;;34.77;17.47;;;4.00;98.20;;;;;;5075136;28;20482;-59
2023/03/07 04:44:07;;;;;;;39.50;18.83;;;4.00;98.20;;;;;;5071426;28;21029;-59
2023/03/07 04:46:35;;;;;;;32.47;14.40;;;4.00;98.20;;;;;;5081973;28;20486;-59
2023/03/07 04:49:01;;;;;;;33.27;14.50;;;4.00;98.20;;;;;;5081336;28;20991;-59
2023/03/07 04:51:28;;;;;;;30.73;15.23;;;4.00;98.10;;;;;;5078628;28;20482;-58
2023/03/07 04:53:55;;;;;;;51.40;23.60;;;4.00;98.10;;;;;;5074889;28;20482;-58
2023/03/07 04:56:21;;;;;;;34.93;16.13;;;3.90;98.20;;;;;;5078772;28;20478;-59
2023/03/07 04:58:48;;;;;;;34.93;16.40;;;3.70;97.80;;;;;;5074402;27;20477;-59
2023/03/07 05:01:15;;;;;;;31.40;15.50;;;3.90;98.20;;;;;;5083002;28;20463;-59
2023/03/07 05:03:43;;;;;;;38.00;16.90;;;4.00;98.20;;;;;;5068494;28;20492;-59
2023/03/07 05:06:13;;;;;;;40.37;19.73;;;3.90;98.00;;;;;;5094815;28;21190;-59
2023/03/07 05:08:40;;;;;;;37.27;17.10;;;3.90;98.00;;;;;;5091014;28;20482;-59
2023/03/07 05:11:06;;;;;;;40.70;15.87;;;3.90;98.00;;;;;;5090530;28;20474;-59
2023/03/07 05:13:33;;;;;;;44.03;20.30;;;3.90;98.00;;;;;;5090930;28;20526;-59
2023/03/07 05:16:00;;;;;;;42.03;16.10;;;3.80;98.00;;;;;;5073257;28;20517;-59
2023/03/07 05:18:27;;;;;;;44.33;19.93;;;3.80;98.10;;;;;;5070654;28;20501;-59
2023/03/07 05:20:55;;;;;;;42.53;21.70;;;3.90;97.90;;;;;;5072673;28;20477;-59
2023/03/07 05:23:22;;;;;;;38.20;15.90;;;3.80;97.90;;;;;;5064647;28;20467;-59
2023/03/07 05:25:49;;;;;;;22.27;10.37;;;3.80;97.80;;;;;;5082924;28;20480;-58
2023/03/07 05:28:17;;;;;;;22.07;10.73;;;3.80;97.90;;;;;;5092492;28;20481;-59
2023/03/07 05:30:44;;;;;;;19.60;9.87;;;3.80;97.90;;;;;;5077576;28;20489;-59
2023/03/07 05:33:10;;;;;;;32.37;11.20;;;3.90;97.90;;;;;;5073068;28;20524;-59
2023/03/07 05:35:38;;;;;;;31.90;14.57;;;3.90;97.70;;;;;;5081072;28;20489;-58
2023/03/07 05:38:06;;;;;;;54.43;23.00;;;4.00;97.70;;;;;;5072009;28;20514;-58
2023/03/07 05:40:33;;;;;;;22.90;10.50;;;4.00;97.60;;;;;;5071030;28;20516;-58
2023/03/07 05:43:00;;;;;;;51.77;19.47;;;3.80;97.50;;;;;;5054498;28;20475;-58
2023/03/07 05:45:26;;;;;;;24.73;13.80;;;3.80;97.30;;;;;;5075492;28;20935;-59
2023/03/07 05:47:53;;;;;;;39.30;16.17;;;3.80;97.30;;;;;;5067236;28;20551;-58
2023/03/07 05:50:20;;;;;;;30.53;15.13;;;3.90;97.50;;;;;;5085144;27;20478;-57
2023/03/07 05:52:46;;;;;;;28.23;14.83;;;3.90;97.40;;;;;;5068470;28;20469;-58
2023/03/07 05:55:14;;;;;;;32.13;14.53;;;4.00;97.10;;;;;;5084936;28;20875;-58
2023/03/07 05:57:41;;;;;;;30.57;14.30;;;4.50;97.40;;;;;;5064569;28;20470;-58
2023/03/07 06:00:10;;;;;;;34.50;18.70;;;3.90;97.20;;;;;;5090854;28;21021;-58
2023/03/07 06:02:37;;;;;;;32.10;13.10;;;3.90;97.10;;;;;;5076333;28;20476;-58
2023/03/07 06:05:03;;;;;;;38.93;16.60;;;3.90;97.10;;;;;;5080857;28;20486;-58
2023/03/07 06:07:30;;;;;;;37.27;18.10;;;4.00;97.10;;;;;;5083289;28;20486;-59
2023/03/07 06:09:57;;;;;;;48.40;20.13;;;3.90;96.90;;;;;;5061339;28;21063;-58
2023/03/07 06:12:25;;;;;;;28.23;10.50;;;4.00;96.80;;;;;;5068051;28;20475;-59
2023/03/07 06:14:51;;;;;;;37.47;17.23;;;4.00;97.10;;;;;;5069635;28;20475;-58
2023/03/07 06:17:18;;;;;;;24.43;10.80;;;3.90;96.80;;;;;;5073160;28;20547;-59
2023/03/07 06:19:45;;;;;;;24.30;11.20;;;4.00;96.70;;;;;;5050129;28;20973;-58
2023/03/07 06:22:11;;;;;;;22.73;11.60;;;3.90;96.60;;;;;;5085520;28;20484;-59
2023/03/07 06:24:38;;;;;;;28.37;11.40;;;4.00;96.80;;;;;;5076451;28;20490;-59
2023/03/07 06:27:05;;;;;;;37.90;15.93;;;4.00;97.00;;;;;;5072525;28;20479;-59
2023/03/07 06:29:33;;;;;;;32.10;16.83;;;4.00;97.10;;;;;;5073614;28;20843;-58
2023/03/07 06:32:00;;;;;;;37.73;15.93;;;4.10;96.80;;;;;;5071834;28;20548;-58
2023/03/07 06:34:27;;;;;;;29.23;15.03;;;4.00;96.60;;;;;;5071089;28;20490;-58
2023/03/07 06:36:53;;;;;;;37.97;17.13;;;4.00;96.70;;;;;;5064371;28;20482;-58
2023/03/07 06:39:20;;;;;;;28.90;13.47;;;4.10;96.90;;;;;;5064323;28;20479;-58
2023/03/07 06:41:47;;;;;;;14.87;8.07;;;4.10;96.70;;;;;;5072343;28;20528;-58
2023/03/07 06:44:14;;;;;;;22.90;9.60;;;4.10;96.80;;;;;;5057057;28;20483;-58
2023/03/07 06:46:42;;;;;;;27.70;13.40;;;4.10;96.50;;;;;;5046879;28;21182;-59
2023/03/07 06:49:09;;;;;;;30.73;14.00;;;4.00;96.50;;;;;;5052781;28;20555;-58
2023/03/07 06:51:36;;;;;;;19.53;9.47;;;4.10;96.60;;;;;;5066798;28;20773;-59
2023/03/07 06:54:02;;;;;;;48.13;18.40;;;4.00;96.60;;;;;;5085318;28;20478;-58
2023/03/07 06:56:30;;;;;;;26.83;12.07;;;4.10;96.50;;;;;;5089178;28;20489;-58
2023/03/07 06:58:56;;;;;;;47.23;20.97;;;4.10;96.60;;;;;;5090320;28;20539;-58
2023/03/07 07:01:23;;;;;;;34.73;16.30;;;4.00;96.70;;;;;;5080822;28;20556;-58
2023/03/07 07:03:51;;;;;;;38.70;18.47;;;4.00;96.50;;;;;;5069956;28;20756;-58
2023/03/07 07:06:18;;;;;;;27.40;14.90;;;4.00;96.60;;;;;;5076614;28;20558;-58
2023/03/07 07:08:44;;;;;;;33.23;13.00;;;6.20;97.60;;;;;;5070550;28;20557;-58
2023/03/07 07:11:11;;;;;;;20.00;10.83;;;4.00;96.50;;;;;;5086088;28;20467;-59
2023/03/07 07:13:38;;;;;;;23.63;11.73;;;4.10;96.60;;;;;;5078910;28;20916;-58
2023/03/07 07:16:06;;;;;;;31.33;10.37;;;4.10;96.40;;;;;;5073960;28;20982;-58
2023/03/07 07:18:33;;;;;;;31.07;15.00;;;4.10;96.20;;;;;;5071401;28;20478;-58
2023/03/07 07:21:02;;;;;;;41.87;16.93;;;;;;;;;;5070365;28;20487;-58
2023/03/07 07:23:29;;;;;;;28.00;13.50;;;4.20;96.10;;;;;;5063586;28;20905;-58
2023/03/07 07:25:56;;;;;;;45.07;19.70;;;4.10;95.80;;;;;;5068158;28;21102;-58
2023/03/07 07:28:23;;;;;;;36.13;18.90;;;4.00;95.90;;;;;;5088554;28;20505;-58
2023/03/07 07:30:49;;;;;;;33.67;13.77;;;4.10;96.30;;;;;;5072858;28;20486;-59
2023/03/07 07:33:16;;;;;;;21.83;11.93;;;4.20;96.10;;;;;;5073685;28;20544;-58
2023/03/07 07:35:44;;;;;;;22.27;12.40;;;;;;;;;;5072245;28;20481;-59
2023/03/07 07:38:12;;;;;;;23.03;11.37;;;4.20;96.10;;;;;;5087367;28;20481;-58
2023/03/07 07:40:39;;;;;;;38.33;16.77;;;4.20;96.00;;;;;;5093509;28;20535;-59
2023/03/07 07:43:05;;;;;;;37.83;18.53;;;4.10;96.10;;;;;;5070417;28;20555;-59
2023/03/07 07:45:32;;;;;;;25.03;13.30;;;4.20;95.90;;;;;;5066812;28;20640;-59
2023/03/07 07:47:59;;;;;;;53.10;22.80;;;4.30;95.90;;;;;;5063474;28;20478;-59
2023/03/07 07:50:26;;;;;;;31.57;14.70;;;;;;;;;;5081072;28;20542;-59
2023/03/07 07:52:53;;;;;;;33.83;18.07;;;4.20;95.80;;;;;;5082329;28;21242;-59
2023/03/07 07:55:23;;;;;;;22.03;10.77;;;4.10;95.80;;;;;;5063819;28;20516;-59
2023/03/07 07:57:50;;;;;;;38.50;15.50;;;4.30;95.90;;;;;;5064957;28;20487;-58
2023/03/07 08:00:20;;;;;;;27.50;13.53;;;4.40;95.80;;;;;;5055890;28;20490;-59
2023/03/07 08:02:48;;;;;;;29.97;14.40;;;4.30;95.80;;;;;;5085218;28;20822;-59
2023/03/07 08:05:15;;;;;;;23.83;14.30;;;4.30;95.80;;;;;;5069007;28;20472;-59
2023/03/07 08:07:49;;;;;;;31.53;15.40;;;4.30;95.70;;;;;;5071530;28;20477;-59
2023/03/07 08:10:16;;;;;;;22.90;9.70;;;4.40;95.90;;;;;;5065225;28;20903;-58
2023/03/07 08:12:47;;;;;;;15.63;7.93;;;4.50;96.10;;;;;;5088199;28;20532;-58
2023/03/07 08:15:15;;;;;;;30.37;11.80;;;4.60;95.90;;;;;;5084105;28;20474;-59
2023/03/07 08:17:42;;;;;;;34.10;17.60;;;4.60;95.90;;;;;;5082101;28;20474;-59
2023/03/07 08:20:10;;;;;;;25.80;12.20;;;4.60;95.60;;;;;;5080736;28;20493;-59
2023/03/07 08:22:37;;;;;;;30.10;15.20;;;4.70;95.40;;;;;;5060101;27;20487;-59
2023/03/07 08:25:05;;;;;;;41.30;19.63;;;;;;;;;;5073817;28;20493;-59
2023/03/07 08:27:31;;;;;;;30.37;13.70;;;4.70;95.50;;;;;;5072363;28;20643;-59
2023/03/07 08:30:00;;;;;;;43.73;16.67;;;4.80;95.40;;;;;;5063549;28;20485;-59
2023/03/07 08:32:27;;;;;;;24.77;10.77;;;4.80;95.40;;;;;;5073969;28;21082;-59
2023/03/07 08:34:53;;;;;;;32.57;17.17;;;4.90;95.30;;;;;;5087862;28;20490;-59
2023/03/07 08:37:20;;;;;;;16.63;6.43;;;4.90;95.50;;;;;;5094157;28;20485;-59
2023/03/07 08:39:47;;;;;;;35.57;17.07;;;4.20;95.00;;;;;;5079872;28;21082;-59
2023/03/07 08:42:13;;;;;;;23.30;11.20;;;4.90;95.20;;;;;;5073868;27;20520;-59
2023/03/07 08:44:40;;;;;;;32.40;13.67;;;4.90;95.10;;;;;;5054192;28;20491;-59
2023/03/07 08:47:10;;;;;;;32.50;14.10;;;4.80;94.90;;;;;;5046321;28;20528;-59
2023/03/07 08:49:36;;;;;;;34.23;17.20;;;4.90;95.20;;;;;;5072117;28;20597;-59
2023/03/07 08:52:03;;;;;;;39.90;16.07;;;4.90;95.00;;;;;;5066167;28;20493;-59
2023/03/07 08:54:31;;;;;;;39.10;16.00;;;4.90;95.00;;;;;;5083895;28;20489;-59
2023/03/07 08:56:58;;;;;;;50.53;20.43;;;4.90;94.90;;;;;;5083241;28;20477;-59
2023/03/07 08:59:25;;;;;;;31.10;13.87;;;4.90;95.10;;;;;;5074570;27;20477;-59
2023/03/07 09:01:51;;;;;;;34.97;16.87;;;6.60;95.20;;;;;;5065429;28;20561;-59
2023/03/07 09:04:19;;;;;;;25.53;13.70;;;4.90;94.70;;;;;;5054925;28;20473;-59
2023/03/07 09:06:46;;;;;;;25.40;14.07;;;4.90;94.50;;;;;;5087704;28;20489;-59
2023/03/07 09:09:13;;;;;;;32.87;15.13;;;4.90;94.50;;;;;;5092603;28;20883;-59
2023/03/07 09:11:39;;;;;;;34.97;15.00;;;4.90;94.60;;;;;;5055578;28;20984;-58
2023/03/07 09:14:06;;;;;;;41.73;19.37;;;4.70;94.30;;;;;;5052013;28;20488;-58
2023/03/07 09:16:33;;;;;;;26.13;13.30;;;4.80;94.30;;;;;;5063947;28;20473;-59
2023/03/07 09:19:00;;;;;;;45.87;21.40;;;4.90;94.60;;;;;;5060922;28;20711;-58
2023/03/07 09:21:28;;;;;;;32.77;17.70;;;5.00;94.70;;;;;;5081149;28;20964;-59
2023/03/07 09:23:55;;;;;;;27.83;14.07;;;5.10;94.50;;;;;;5074718;28;20572;-58
2023/03/07 09:26:21;;;;;;;29.67;14.80;;;5.10;94.30;;;;;;5064249;28;20490;-58
2023/03/07 09:28:48;;;;;;;26.40;13.20;;;5.10;94.20;;;;;;5068468;28;20474;-58
2023/03/07 09:31:16;;;;;;;32.17;13.47;;;5.20;94.20;;;;;;5088411;28;20478;-58
2023/03/07 09:33:42;;;;;;;34.17;14.40;;;5.30;94.60;;;;;;5062541;28;20533;-58
2023/03/07 09:36:11;;;;;;;42.07;19.40;;;5.30;94.30;;;;;;5060554;28;20531;-58
2023/03/07 09:38:40;;;;;;;37.17;16.80;;;5.40;94.60;;;;;;5082963;28;21058;-59
2023/03/07 09:41:18;;;;;;;38.50;17.30;;;5.40;94.30;;;;;;5079557;28;20935;-58
2023/03/07 09:43:51;;;;;;;29.20;15.43;;;5.50;94.70;;;;;;5070112;28;20886;-59
2023/03/07 09:46:30;;;;;;;30.27;14.43;;;5.40;94.20;;;;;;5085383;28;20952;-58
2023/03/07 09:49:18;;;;;;;35.57;16.07;;;5.50;93.60;;;;;;5084365;28;20539;-58
2023/03/07 09:51:48;;;;;;;36.03;14.03;;;5.50;94.00;;;;;;5062968;28;20895;-59
2023/03/07 09:54:19;;;;;;;24.37;13.93;;;5.60;94.30;;;;;;5035363;28;20547;-59
2023/03/07 09:56:49;;;;;;;22.17;11.30;;;5.80;94.30;;;;;;5082582;28;21020;-58
2023/03/07 09:59:21;;;;;;;29.27;15.57;;;5.80;94.50;;;;;;5072612;28;20548;-59
2023/03/07 10:01:50;;;;;;;29.57;18.37;;;;;;;;;;5049353;28;20512;-59
2023/03/07 10:04:22;;;;;;;19.50;10.37;;;5.70;93.50;;;;;;5083994;28;20494;-59
2023/03/07 10:06:54;;;;;;;26.57;14.37;;;5.90;94.20;;;;;;5064367;28;20478;-59
2023/03/07 10:09:23;;;;;;;23.57;9.60;;;6.00;94.00;;;;;;5072144;28;21820;-59
2023/03/07 10:12:22;;;;;;;33.03;16.53;;;6.00;93.90;;;;;;5076398;28;20497;-58
2023/03/07 10:15:12;;;;;;;24.57;12.97;;;5.90;93.30;;;;;;5048498;28;20482;-59
2023/03/07 10:17:50;;;;;;;32.10;13.43;;;5.90;93.60;;;;;;5027765;28;21023;-59
2023/03/07 10:20:23;;;;;;;24.10;14.97;;;6.00;93.70;;;;;;5058136;28;20958;-59
2023/03/07 10:22:58;;;;;;;24.13;10.67;;;6.20;94.30;;;;;;5070758;28;20490;-59
2023/03/07 10:25:28;;;;;;;23.07;11.63;;;6.20;94.00;;;;;;5065285;28;20825;-59
2023/03/07 10:28:01;;;;;;;29.73;14.83;;;6.30;93.80;;;;;;5074379;28;20470;-59
2023/03/07 10:30:32;;;;;;;36.80;19.10;;;6.30;94.10;;;;;;5070629;28;20500;-59
2023/03/07 10:33:00;;;;;;;37.50;15.90;;;6.20;93.70;;;;;;5052345;28;20497;-58
2023/03/07 10:35:39;;;;;;;24.97;13.13;;;6.40;93.70;;;;;;5076742;27;20517;-59
2023/03/07 10:38:18;;;;;;;34.07;14.93;;;6.30;93.60;;;;;;5070826;28;20888;-58
2023/03/07 10:40:52;;;;;;;29.63;15.80;;;6.40;93.60;;;;;;5075477;28;21030;-59
2023/03/07 10:43:24;;;;;;;22.20;12.90;;;6.10;93.00;;;;;;5062641;28;20865;-59
2023/03/07 10:45:56;;;;;;;27.10;14.73;;;6.40;93.60;;;;;;5070164;28;20487;-58
2023/03/07 10:48:24;;;;;;;27.60;13.80;;;6.40;93.70;;;;;;5061581;28;20536;-59
2023/03/07 10:51:00;;;;;;;31.60;17.00;;;6.60;94.90;;;;;;5063233;28;21005;-59
2023/03/07 10:53:31;;;;;;;31.07;15.67;;;6.60;93.80;;;;;;5082083;28;20486;-59
2023/03/07 10:56:11;;;;;;;37.37;17.83;;;6.60;93.40;;;;;;5070003;28;20539;-58
2023/03/07 10:58:38;;;;;;;21.60;10.23;;;6.60;93.80;;;;;;5075464;28;20907;-59
2023/03/07 11:01:20;;;;;;;40.83;20.67;;;6.70;93.30;;;;;;5075368;28;20491;-58
2023/03/07 11:03:50;;;;;;;41.47;12.90;;;6.80;92.90;;;;;;5067761;28;20485;-58
2023/03/07 11:06:51;;;;;;;34.90;19.23;;;6.60;92.80;;;;;;5067661;28;20477;-58
2023/03/07 11:09:24;;;;;;;26.23;12.67;;;6.70;92.90;;;;;;5043168;28;20500;-58
2023/03/07 11:11:56;;;;;;;32.83;14.00;;;6.70;93.10;;;;;;5070398;28;20482;-59
2023/03/07 11:14:24;;;;;;;30.03;12.00;;;7.30;93.10;;;;;;5070491;28;20553;-59
2023/03/07 11:16:54;;;;;;;20.77;11.60;;;6.80;93.00;;;;;;5069112;28;20489;-59
2023/03/07 11:19:39;;;;;;;29.83;15.23;;;6.90;93.30;;;;;;5065513;28;20490;-59
2023/03/07 11:22:21;;;;;;;50.27;18.30;;;7.00;92.50;;;;;;5075498;28;20486;-58
2023/03/07 11:24:53;;;;;;;26.70;12.73;;;7.10;93.00;;;;;;5063086;28;20586;-58
2023/03/07 11:27:25;;;;;;;24.23;12.80;;;7.30;93.40;;;;;;5061769;28;20478;-59
2023/03/07 11:30:26;;;;;;;26.63;16.10;;;6.90;92.10;;;;;;5069479;28;20494;-59
2023/03/07 11:33:05;;;;;;;34.77;14.60;;;7.20;93.20;;;;;;4991946;28;20487;-59
2023/03/07 11:35:58;;;;;;;28.50;14.63;;;7.40;93.00;;;;;;5059392;28;20485;-58
2023/03/07 11:38:52;;;;;;;20.00;9.63;;;7.30;92.20;;;;;;5055421;28;20466;-58
2023/03/07 11:41:25;;;;;;;22.27;10.77;;;7.40;92.20;;;;;;5069045;28;20462;-59
2023/03/07 11:44:12;;;;;;;25.10;12.07;;;7.40;92.10;;;;;;5072285;28;20699;-60
2023/03/07 11:47:02;;;;;;;23.80;11.83;;;7.50;91.10;;;;;;5075572;28;20481;-60
2023/03/07 11:49:43;;;;;;;29.67;11.10;;;7.50;90.70;;;;;;5068934;28;21043;-60
2023/03/07 11:52:24;;;;;;;27.70;13.57;;;7.50;90.80;;;;;;5062873;28;20553;-60
2023/03/07 11:55:01;;;;;;;29.73;13.93;;;7.50;91.00;;;;;;5060605;28;20869;-59
2023/03/07 11:57:43;;;;;;;29.93;10.70;;;7.50;91.50;;;;;;5064798;28;20486;-60
2023/03/07 12:00:27;;;;;;;23.90;11.23;;;7.50;89.50;;;;;;5075524;28;20738;-60
2023/03/07 12:03:24;;;;;;;28.73;12.93;;;7.50;90.60;;;;;;5071383;28;21275;-59
2023/03/07 12:06:13;;;;;;;27.10;9.67;;;7.40;91.00;;;;;;5055471;28;20588;-59
2023/03/07 12:08:51;;;;;;;15.43;8.20;;;7.50;91.20;;;;;;5068348;28;20563;-59
2023/03/07 12:11:34;;;;;;;22.00;12.93;;;7.40;90.80;;;;;;5079520;28;20477;-60
2023/03/07 12:14:14;;;;;;;40.43;21.43;;;6.90;90.10;;;;;;5078002;28;21288;-60
2023/03/07 12:16:52;;;;;;;29.13;14.67;;;6.90;90.00;;;;;;5074703;28;20494;-59
2023/03/07 12:19:39;;;;;;;16.97;9.77;;;6.90;90.30;;;;;;5076476;28;20474;-60
2023/03/07 12:22:23;;;;;;;29.07;15.73;;;6.80;90.10;;;;;;5069929;28;20575;-59
2023/03/07 12:25:01;;;;;;;21.23;11.00;;;6.80;90.90;;;;;;5075835;28;20594;-58
2023/03/07 12:27:31;;;;;;;16.90;8.30;;;6.80;90.80;;;;;;5072489;28;20531;-59
2023/03/07 12:30:02;;;;;;;35.47;14.70;;;6.80;90.50;;;;;;5064470;28;20568;-59
2023/03/07 12:32:33;;;;;;;14.90;8.40;;;6.90;90.80;;;;;;5073828;28;20486;-59
2023/03/07 12:35:05;;;;;;;30.50;14.43;;;6.90;90.40;;;;;;5063099;28;20528;-59
2023/03/07 12:37:39;;;;;;;26.10;12.60;;;6.90;90.80;;;;;;5080984;28;20995;-59
2023/03/07 12:40:13;;;;;;;28.07;14.13;;;7.00;90.50;;;;;;5073043;28;20480;-60
2023/03/07 12:42:45;;;;;;;27.33;11.30;;;7.00;90.90;;;;;;5080660;28;20573;-59
2023/03/07 12:45:14;;;;;;;23.07;10.10;;;6.90;91.00;;;;;;5074270;28;20477;-59
2023/03/07 12:47:55;;;;;;;28.10;11.77;;;7.00;91.00;;;;;;5065571;28;20485;-59
2023/03/07 12:50:27;;;;;;;14.47;8.70;;;7.00;91.80;;;;;;5060620;28;20973;-58
2023/03/07 12:52:58;;;;;;;24.63;13.90;;;6.80;92.00;;;;;;5079517;28;20498;-59